sensor_id;sensor_type;location;lat;lon;timestamp;P1;durP1;ratioP1;P2;durP2;ratioP2
23044;SDS011;11690;51.716;23.066;2023-07-09T00:01:13;5.70;;;3.28;;
23044;SDS011;11690;51.716;23.066;2023-07-09T00:03:41;5.13;;;3.00;;
23044;SDS011;11690;51.716;23.066;2023-07-09T00:06:09;3.67;;;2.83;;
23044;SDS011;11690;51.716;23.066;2023-07-09T00:08:36;4.05;;;3.20;;
23044;SDS011;11690;51.716;23.066;2023-07-09T00:11:06;3.97;;;3.03;;
23044;SDS011;11690;51.716;23.066;2023-07-09T00:13:33;3.25;;;2.70;;
23044;SDS011;11690;51.716;23.066;2023-07-09T00:16:01;9.85;;;3.10;;
23044;SDS011;11690;51.716;23.066;2023-07-09T00:18:31;4.00;;;3.00;;
23044;SDS011;11690;51.716;23.066;2023-07-09T00:20:59;5.93;;;3.28;;
23044;SDS011;11690;51.716;23.066;2023-07-09T00:23:26;3.38;;;2.58;;
23044;SDS011;11690;51.716;23.066;2023-07-09T00:25:54;4.43;;;3.28;;
23044;SDS011;11690;51.716;23.066;2023-07-09T00:28:21;6.00;;;3.20;;
23044;SDS011;11690;51.716;23.066;2023-07-09T00:30:48;6.18;;;3.33;;
23044;SDS011;11690;51.716;23.066;2023-07-09T00:33:16;5.40;;;3.72;;
23044;SDS011;11690;51.716;23.066;2023-07-09T00:35:47;4.25;;;3.20;;
23044;SDS011;11690;51.716;23.066;2023-07-09T00:38:18;3.72;;;3.15;;
23044;SDS011;11690;51.716;23.066;2023-07-09T00:41:04;5.00;;;2.97;;
23044;SDS011;11690;51.716;23.066;2023-07-09T00:43:33;7.60;;;3.60;;
23044;SDS011;11690;51.716;23.066;2023-07-09T00:48:41;4.35;;;3.20;;
23044;SDS011;11690;51.716;23.066;2023-07-09T00:51:10;5.32;;;3.10;;
23044;SDS011;11690;51.716;23.066;2023-07-09T00:53:41;3.78;;;2.83;;
23044;SDS011;11690;51.716;23.066;2023-07-09T00:56:14;4.95;;;2.83;;
23044;SDS011;11690;51.716;23.066;2023-07-09T00:58:43;6.97;;;3.58;;
23044;SDS011;11690;51.716;23.066;2023-07-09T01:01:15;5.80;;;2.70;;
23044;SDS011;11690;51.716;23.066;2023-07-09T01:03:45;3.92;;;2.90;;
23044;SDS011;11690;51.716;23.066;2023-07-09T01:06:15;4.15;;;2.80;;
23044;SDS011;11690;51.716;23.066;2023-07-09T01:08:44;8.50;;;3.05;;
23044;SDS011;11690;51.716;23.066;2023-07-09T01:11:16;5.32;;;3.50;;
23044;SDS011;11690;51.716;23.066;2023-07-09T01:13:51;4.63;;;2.95;;
23044;SDS011;11690;51.716;23.066;2023-07-09T01:16:21;5.00;;;3.50;;
23044;SDS011;11690;51.716;23.066;2023-07-09T01:18:51;5.53;;;3.30;;
23044;SDS011;11690;51.716;23.066;2023-07-09T01:21:19;11.25;;;3.40;;
23044;SDS011;11690;51.716;23.066;2023-07-09T01:23:48;3.13;;;2.80;;
23044;SDS011;11690;51.716;23.066;2023-07-09T01:26:17;4.97;;;3.22;;
23044;SDS011;11690;51.716;23.066;2023-07-09T01:28:46;8.68;;;2.90;;
23044;SDS011;11690;51.716;23.066;2023-07-09T01:31:14;3.60;;;3.17;;
23044;SDS011;11690;51.716;23.066;2023-07-09T01:33:42;4.65;;;3.13;;
23044;SDS011;11690;51.716;23.066;2023-07-09T01:36:12;8.55;;;3.40;;
23044;SDS011;11690;51.716;23.066;2023-07-09T01:38:44;4.45;;;3.25;;
23044;SDS011;11690;51.716;23.066;2023-07-09T01:41:12;3.60;;;2.80;;
23044;SDS011;11690;51.716;23.066;2023-07-09T01:43:41;2.95;;;2.65;;
23044;SDS011;11690;51.716;23.066;2023-07-09T01:46:09;3.97;;;2.92;;
23044;SDS011;11690;51.716;23.066;2023-07-09T01:48:39;3.97;;;3.00;;
23044;SDS011;11690;51.716;23.066;2023-07-09T01:51:14;7.15;;;3.33;;
23044;SDS011;11690;51.716;23.066;2023-07-09T01:53:43;3.67;;;3.00;;
23044;SDS011;11690;51.716;23.066;2023-07-09T01:56:11;6.18;;;3.40;;
23044;SDS011;11690;51.716;23.066;2023-07-09T01:58:38;5.88;;;3.17;;
23044;SDS011;11690;51.716;23.066;2023-07-09T02:01:10;4.63;;;3.45;;
23044;SDS011;11690;51.716;23.066;2023-07-09T02:03:37;4.43;;;3.13;;
23044;SDS011;11690;51.716;23.066;2023-07-09T02:06:05;4.18;;;3.47;;
23044;SDS011;11690;51.716;23.066;2023-07-09T02:08:37;6.95;;;3.50;;
23044;SDS011;11690;51.716;23.066;2023-07-09T02:11:04;3.75;;;3.15;;
23044;SDS011;11690;51.716;23.066;2023-07-09T02:13:31;5.38;;;3.63;;
23044;SDS011;11690;51.716;23.066;2023-07-09T02:15:58;7.10;;;3.63;;
23044;SDS011;11690;51.716;23.066;2023-07-09T02:18:27;5.38;;;4.00;;
23044;SDS011;11690;51.716;23.066;2023-07-09T02:20:55;6.07;;;3.92;;
23044;SDS011;11690;51.716;23.066;2023-07-09T02:23:25;6.38;;;3.38;;
23044;SDS011;11690;51.716;23.066;2023-07-09T02:25:54;6.40;;;3.35;;
23044;SDS011;11690;51.716;23.066;2023-07-09T02:28:21;4.70;;;3.63;;
23044;SDS011;11690;51.716;23.066;2023-07-09T02:30:48;4.18;;;3.47;;
23044;SDS011;11690;51.716;23.066;2023-07-09T02:33:15;8.00;;;3.92;;
23044;SDS011;11690;51.716;23.066;2023-07-09T02:35:43;7.35;;;3.65;;
23044;SDS011;11690;51.716;23.066;2023-07-09T02:38:10;5.55;;;4.22;;
23044;SDS011;11690;51.716;23.066;2023-07-09T02:40:38;5.20;;;3.70;;
23044;SDS011;11690;51.716;23.066;2023-07-09T02:43:05;5.32;;;3.45;;
23044;SDS011;11690;51.716;23.066;2023-07-09T02:45:33;8.35;;;3.80;;
23044;SDS011;11690;51.716;23.066;2023-07-09T02:48:00;5.55;;;4.10;;
23044;SDS011;11690;51.716;23.066;2023-07-09T02:50:33;7.00;;;3.85;;
23044;SDS011;11690;51.716;23.066;2023-07-09T02:53:00;7.05;;;4.03;;
23044;SDS011;11690;51.716;23.066;2023-07-09T02:55:28;10.57;;;5.25;;
23044;SDS011;11690;51.716;23.066;2023-07-09T02:57:56;7.82;;;4.30;;
23044;SDS011;11690;51.716;23.066;2023-07-09T03:00:23;7.22;;;5.00;;
23044;SDS011;11690;51.716;23.066;2023-07-09T03:02:50;8.05;;;4.65;;
23044;SDS011;11690;51.716;23.066;2023-07-09T03:05:18;7.95;;;5.45;;
23044;SDS011;11690;51.716;23.066;2023-07-09T03:07:45;6.90;;;4.22;;
23044;SDS011;11690;51.716;23.066;2023-07-09T03:10:12;7.43;;;4.63;;
23044;SDS011;11690;51.716;23.066;2023-07-09T03:12:39;9.23;;;5.50;;
23044;SDS011;11690;51.716;23.066;2023-07-09T03:15:07;10.20;;;6.13;;
23044;SDS011;11690;51.716;23.066;2023-07-09T03:17:34;9.15;;;5.65;;
23044;SDS011;11690;51.716;23.066;2023-07-09T03:20:01;9.75;;;5.53;;
23044;SDS011;11690;51.716;23.066;2023-07-09T03:22:29;6.63;;;4.68;;
23044;SDS011;11690;51.716;23.066;2023-07-09T03:24:56;8.57;;;4.55;;
23044;SDS011;11690;51.716;23.066;2023-07-09T03:27:23;9.05;;;3.80;;
23044;SDS011;11690;51.716;23.066;2023-07-09T03:29:50;5.35;;;3.90;;
23044;SDS011;11690;51.716;23.066;2023-07-09T03:32:17;7.25;;;4.95;;
23044;SDS011;11690;51.716;23.066;2023-07-09T03:34:45;6.93;;;5.03;;
23044;SDS011;11690;51.716;23.066;2023-07-09T03:37:12;7.22;;;5.05;;
23044;SDS011;11690;51.716;23.066;2023-07-09T03:39:39;8.48;;;5.25;;
23044;SDS011;11690;51.716;23.066;2023-07-09T03:42:06;8.82;;;5.50;;
23044;SDS011;11690;51.716;23.066;2023-07-09T03:44:34;9.00;;;5.72;;
23044;SDS011;11690;51.716;23.066;2023-07-09T03:47:01;10.13;;;7.05;;
23044;SDS011;11690;51.716;23.066;2023-07-09T03:49:28;16.17;;;6.55;;
23044;SDS011;11690;51.716;23.066;2023-07-09T03:51:55;11.45;;;7.50;;
23044;SDS011;11690;51.716;23.066;2023-07-09T03:54:23;8.57;;;6.45;;
23044;SDS011;11690;51.716;23.066;2023-07-09T03:56:53;10.65;;;7.50;;
23044;SDS011;11690;51.716;23.066;2023-07-09T03:59:20;17.30;;;7.10;;
23044;SDS011;11690;51.716;23.066;2023-07-09T04:01:47;9.60;;;6.47;;
23044;SDS011;11690;51.716;23.066;2023-07-09T04:04:15;13.93;;;7.45;;
23044;SDS011;11690;51.716;23.066;2023-07-09T04:06:47;10.70;;;7.22;;
23044;SDS011;11690;51.716;23.066;2023-07-09T04:09:14;15.32;;;7.43;;
23044;SDS011;11690;51.716;23.066;2023-07-09T04:11:41;12.57;;;7.20;;
23044;SDS011;11690;51.716;23.066;2023-07-09T04:14:09;10.75;;;6.63;;
23044;SDS011;11690;51.716;23.066;2023-07-09T04:16:36;14.93;;;7.45;;
23044;SDS011;11690;51.716;23.066;2023-07-09T04:19:03;9.48;;;6.90;;
23044;SDS011;11690;51.716;23.066;2023-07-09T04:21:30;8.73;;;6.55;;
23044;SDS011;11690;51.716;23.066;2023-07-09T04:23:57;12.20;;;6.85;;
23044;SDS011;11690;51.716;23.066;2023-07-09T04:26:25;10.02;;;6.50;;
23044;SDS011;11690;51.716;23.066;2023-07-09T04:28:52;12.10;;;6.38;;
23044;SDS011;11690;51.716;23.066;2023-07-09T04:31:19;9.90;;;6.80;;
23044;SDS011;11690;51.716;23.066;2023-07-09T04:33:46;11.90;;;7.32;;
23044;SDS011;11690;51.716;23.066;2023-07-09T04:36:13;9.18;;;7.07;;
23044;SDS011;11690;51.716;23.066;2023-07-09T04:38:41;10.52;;;7.60;;
23044;SDS011;11690;51.716;23.066;2023-07-09T04:41:08;9.07;;;6.68;;
23044;SDS011;11690;51.716;23.066;2023-07-09T04:43:35;9.77;;;6.63;;
23044;SDS011;11690;51.716;23.066;2023-07-09T04:46:02;10.50;;;6.72;;
23044;SDS011;11690;51.716;23.066;2023-07-09T04:48:30;9.88;;;7.03;;
23044;SDS011;11690;51.716;23.066;2023-07-09T04:50:57;12.20;;;7.35;;
23044;SDS011;11690;51.716;23.066;2023-07-09T04:53:26;9.02;;;6.72;;
23044;SDS011;11690;51.716;23.066;2023-07-09T04:55:54;11.13;;;6.35;;
23044;SDS011;11690;51.716;23.066;2023-07-09T04:58:22;9.25;;;6.35;;
23044;SDS011;11690;51.716;23.066;2023-07-09T05:00:49;10.48;;;6.70;;
23044;SDS011;11690;51.716;23.066;2023-07-09T05:03:18;9.43;;;6.35;;
23044;SDS011;11690;51.716;23.066;2023-07-09T05:05:46;9.60;;;6.32;;
23044;SDS011;11690;51.716;23.066;2023-07-09T05:08:14;9.43;;;6.07;;
23044;SDS011;11690;51.716;23.066;2023-07-09T05:10:42;6.82;;;5.55;;
23044;SDS011;11690;51.716;23.066;2023-07-09T05:13:10;8.05;;;5.82;;
23044;SDS011;11690;51.716;23.066;2023-07-09T05:15:41;7.22;;;4.80;;
23044;SDS011;11690;51.716;23.066;2023-07-09T05:18:11;7.97;;;5.00;;
23044;SDS011;11690;51.716;23.066;2023-07-09T05:20:39;7.07;;;4.80;;
23044;SDS011;11690;51.716;23.066;2023-07-09T05:23:08;6.40;;;5.10;;
23044;SDS011;11690;51.716;23.066;2023-07-09T05:25:35;6.97;;;4.65;;
23044;SDS011;11690;51.716;23.066;2023-07-09T05:28:03;6.82;;;4.63;;
23044;SDS011;11690;51.716;23.066;2023-07-09T05:30:31;7.00;;;4.80;;
23044;SDS011;11690;51.716;23.066;2023-07-09T05:32:59;5.72;;;4.07;;
23044;SDS011;11690;51.716;23.066;2023-07-09T05:35:26;5.15;;;4.07;;
23044;SDS011;11690;51.716;23.066;2023-07-09T05:37:54;5.25;;;3.83;;
23044;SDS011;11690;51.716;23.066;2023-07-09T05:40:21;5.68;;;3.63;;
23044;SDS011;11690;51.716;23.066;2023-07-09T05:42:49;4.78;;;3.40;;
23044;SDS011;11690;51.716;23.066;2023-07-09T05:45:16;4.72;;;3.40;;
23044;SDS011;11690;51.716;23.066;2023-07-09T05:47:43;6.72;;;3.38;;
23044;SDS011;11690;51.716;23.066;2023-07-09T05:50:10;3.53;;;2.90;;
23044;SDS011;11690;51.716;23.066;2023-07-09T05:52:38;6.20;;;3.50;;
23044;SDS011;11690;51.716;23.066;2023-07-09T05:55:05;4.88;;;3.22;;
23044;SDS011;11690;51.716;23.066;2023-07-09T05:57:33;4.70;;;3.30;;
23044;SDS011;11690;51.716;23.066;2023-07-09T06:00:00;4.35;;;2.85;;
23044;SDS011;11690;51.716;23.066;2023-07-09T06:02:39;5.90;;;2.92;;
23044;SDS011;11690;51.716;23.066;2023-07-09T06:05:06;3.97;;;2.85;;
23044;SDS011;11690;51.716;23.066;2023-07-09T06:07:38;3.75;;;2.58;;
23044;SDS011;11690;51.716;23.066;2023-07-09T06:10:06;3.75;;;2.60;;
23044;SDS011;11690;51.716;23.066;2023-07-09T06:12:35;3.42;;;2.80;;
23044;SDS011;11690;51.716;23.066;2023-07-09T06:15:02;5.47;;;2.78;;
23044;SDS011;11690;51.716;23.066;2023-07-09T06:17:30;3.22;;;2.75;;
23044;SDS011;11690;51.716;23.066;2023-07-09T06:19:57;4.70;;;2.63;;
23044;SDS011;11690;51.716;23.066;2023-07-09T06:22:25;4.13;;;2.55;;
23044;SDS011;11690;51.716;23.066;2023-07-09T06:24:53;5.90;;;2.60;;
23044;SDS011;11690;51.716;23.066;2023-07-09T06:27:21;4.05;;;2.25;;
23044;SDS011;11690;51.716;23.066;2023-07-09T06:29:48;3.92;;;2.22;;
23044;SDS011;11690;51.716;23.066;2023-07-09T06:32:15;4.15;;;2.30;;
23044;SDS011;11690;51.716;23.066;2023-07-09T06:34:42;4.32;;;2.60;;
23044;SDS011;11690;51.716;23.066;2023-07-09T06:37:09;2.97;;;2.00;;
23044;SDS011;11690;51.716;23.066;2023-07-09T06:39:37;3.10;;;2.25;;
23044;SDS011;11690;51.716;23.066;2023-07-09T06:42:04;4.30;;;1.90;;
23044;SDS011;11690;51.716;23.066;2023-07-09T06:44:52;3.88;;;2.50;;
23044;SDS011;11690;51.716;23.066;2023-07-09T06:47:19;3.67;;;2.47;;
23044;SDS011;11690;51.716;23.066;2023-07-09T06:49:46;3.10;;;1.67;;
23044;SDS011;11690;51.716;23.066;2023-07-09T06:52:14;4.22;;;2.42;;
23044;SDS011;11690;51.716;23.066;2023-07-09T06:54:41;3.17;;;2.05;;
23044;SDS011;11690;51.716;23.066;2023-07-09T06:57:08;4.05;;;2.28;;
23044;SDS011;11690;51.716;23.066;2023-07-09T06:59:35;7.85;;;2.03;;
23044;SDS011;11690;51.716;23.066;2023-07-09T07:02:02;2.60;;;1.88;;
23044;SDS011;11690;51.716;23.066;2023-07-09T07:04:30;2.80;;;2.05;;
23044;SDS011;11690;51.716;23.066;2023-07-09T07:06:57;3.75;;;2.42;;
23044;SDS011;11690;51.716;23.066;2023-07-09T07:09:24;2.35;;;1.85;;
23044;SDS011;11690;51.716;23.066;2023-07-09T07:11:51;2.75;;;1.75;;
23044;SDS011;11690;51.716;23.066;2023-07-09T07:14:18;3.08;;;2.10;;
23044;SDS011;11690;51.716;23.066;2023-07-09T07:16:46;3.92;;;2.08;;
23044;SDS011;11690;51.716;23.066;2023-07-09T07:19:13;1.98;;;1.63;;
23044;SDS011;11690;51.716;23.066;2023-07-09T07:21:40;2.75;;;2.00;;
23044;SDS011;11690;51.716;23.066;2023-07-09T07:24:07;2.50;;;1.92;;
23044;SDS011;11690;51.716;23.066;2023-07-09T07:26:34;2.42;;;1.80;;
23044;SDS011;11690;51.716;23.066;2023-07-09T07:29:02;2.63;;;1.77;;
23044;SDS011;11690;51.716;23.066;2023-07-09T07:31:30;2.00;;;1.60;;
23044;SDS011;11690;51.716;23.066;2023-07-09T07:33:57;2.58;;;1.80;;
23044;SDS011;11690;51.716;23.066;2023-07-09T07:36:24;3.55;;;2.15;;
23044;SDS011;11690;51.716;23.066;2023-07-09T07:38:57;2.38;;;1.75;;
23044;SDS011;11690;51.716;23.066;2023-07-09T07:41:25;3.17;;;1.65;;
23044;SDS011;11690;51.716;23.066;2023-07-09T07:43:52;4.95;;;2.00;;
23044;SDS011;11690;51.716;23.066;2023-07-09T07:46:19;3.67;;;1.83;;
23044;SDS011;11690;51.716;23.066;2023-07-09T07:48:46;2.83;;;1.90;;
23044;SDS011;11690;51.716;23.066;2023-07-09T07:51:14;2.83;;;1.70;;
23044;SDS011;11690;51.716;23.066;2023-07-09T07:53:40;2.58;;;1.70;;
23044;SDS011;11690;51.716;23.066;2023-07-09T07:56:08;2.22;;;1.60;;
23044;SDS011;11690;51.716;23.066;2023-07-09T07:58:35;4.50;;;1.83;;
23044;SDS011;11690;51.716;23.066;2023-07-09T08:01:02;3.33;;;1.80;;
23044;SDS011;11690;51.716;23.066;2023-07-09T08:03:30;2.00;;;1.48;;
23044;SDS011;11690;51.716;23.066;2023-07-09T08:05:57;2.70;;;1.80;;
23044;SDS011;11690;51.716;23.066;2023-07-09T08:08:28;2.35;;;1.60;;
23044;SDS011;11690;51.716;23.066;2023-07-09T08:11:05;2.70;;;1.52;;
23044;SDS011;11690;51.716;23.066;2023-07-09T08:13:34;4.30;;;1.30;;
23044;SDS011;11690;51.716;23.066;2023-07-09T08:16:04;2.28;;;1.48;;
23044;SDS011;11690;51.716;23.066;2023-07-09T08:18:32;3.22;;;1.80;;
23044;SDS011;11690;51.716;23.066;2023-07-09T08:21:00;2.72;;;1.70;;
23044;SDS011;11690;51.716;23.066;2023-07-09T08:23:27;4.00;;;2.03;;
23044;SDS011;11690;51.716;23.066;2023-07-09T08:25:58;2.38;;;1.48;;
23044;SDS011;11690;51.716;23.066;2023-07-09T08:28:26;2.90;;;1.42;;
23044;SDS011;11690;51.716;23.066;2023-07-09T08:30:54;2.80;;;1.77;;
23044;SDS011;11690;51.716;23.066;2023-07-09T08:33:22;3.90;;;1.40;;
23044;SDS011;11690;51.716;23.066;2023-07-09T08:35:50;2.40;;;1.60;;
23044;SDS011;11690;51.716;23.066;2023-07-09T08:38:18;2.28;;;1.48;;
23044;SDS011;11690;51.716;23.066;2023-07-09T08:40:58;2.47;;;1.30;;
23044;SDS011;11690;51.716;23.066;2023-07-09T08:43:36;2.35;;;1.42;;
23044;SDS011;11690;51.716;23.066;2023-07-09T08:48:37;2.78;;;1.40;;
23044;SDS011;11690;51.716;23.066;2023-07-09T08:51:15;3.28;;;1.40;;
23044;SDS011;11690;51.716;23.066;2023-07-09T08:56:20;2.30;;;1.27;;
23044;SDS011;11690;51.716;23.066;2023-07-09T08:58:48;2.25;;;1.42;;
23044;SDS011;11690;51.716;23.066;2023-07-09T09:01:18;3.95;;;1.48;;
23044;SDS011;11690;51.716;23.066;2023-07-09T09:03:48;1.17;;;1.00;;
23044;SDS011;11690;51.716;23.066;2023-07-09T09:11:31;2.28;;;1.80;;
23044;SDS011;11690;51.716;23.066;2023-07-09T09:14:07;3.35;;;1.73;;
23044;SDS011;11690;51.716;23.066;2023-07-09T09:16:43;1.83;;;1.42;;
23044;SDS011;11690;51.716;23.066;2023-07-09T09:19:27;2.83;;;1.40;;
23044;SDS011;11690;51.716;23.066;2023-07-09T09:21:58;2.38;;;1.50;;
23044;SDS011;11690;51.716;23.066;2023-07-09T09:24:35;1.88;;;1.20;;
23044;SDS011;11690;51.716;23.066;2023-07-09T09:27:04;2.97;;;1.35;;
23044;SDS011;11690;51.716;23.066;2023-07-09T09:29:31;2.30;;;1.33;;
23044;SDS011;11690;51.716;23.066;2023-07-09T09:31:58;1.52;;;1.20;;
23044;SDS011;11690;51.716;23.066;2023-07-09T09:34:28;3.03;;;1.55;;
23044;SDS011;11690;51.716;23.066;2023-07-09T09:36:57;1.77;;;1.30;;
23044;SDS011;11690;51.716;23.066;2023-07-09T09:39:26;2.30;;;1.38;;
23044;SDS011;11690;51.716;23.066;2023-07-09T09:41:54;1.98;;;1.30;;
23044;SDS011;11690;51.716;23.066;2023-07-09T09:44:27;1.27;;;1.10;;
23044;SDS011;11690;51.716;23.066;2023-07-09T09:46:58;1.65;;;1.30;;
23044;SDS011;11690;51.716;23.066;2023-07-09T09:49:26;3.50;;;1.10;;
23044;SDS011;11690;51.716;23.066;2023-07-09T09:51:55;2.90;;;1.27;;
23044;SDS011;11690;51.716;23.066;2023-07-09T09:54:26;1.42;;;1.02;;
23044;SDS011;11690;51.716;23.066;2023-07-09T09:56:55;1.48;;;1.10;;
23044;SDS011;11690;51.716;23.066;2023-07-09T09:59:30;1.60;;;1.17;;
23044;SDS011;11690;51.716;23.066;2023-07-09T10:02:00;1.52;;;1.15;;
23044;SDS011;11690;51.716;23.066;2023-07-09T10:04:29;4.13;;;1.20;;
23044;SDS011;11690;51.716;23.066;2023-07-09T10:06:58;1.77;;;1.38;;
23044;SDS011;11690;51.716;23.066;2023-07-09T10:09:45;1.95;;;1.20;;
23044;SDS011;11690;51.716;23.066;2023-07-09T10:17:36;1.88;;;1.00;;
23044;SDS011;11690;51.716;23.066;2023-07-09T10:20:09;1.42;;;1.17;;
23044;SDS011;11690;51.716;23.066;2023-07-09T10:22:48;1.88;;;1.20;;
23044;SDS011;11690;51.716;23.066;2023-07-09T10:25:40;1.67;;;1.05;;
23044;SDS011;11690;51.716;23.066;2023-07-09T10:28:26;1.55;;;1.08;;
23044;SDS011;11690;51.716;23.066;2023-07-09T10:36:28;1.70;;;1.00;;
23044;SDS011;11690;51.716;23.066;2023-07-09T10:41:33;1.42;;;1.20;;
23044;SDS011;11690;51.716;23.066;2023-07-09T10:46:32;1.10;;;0.70;;
23044;SDS011;11690;51.716;23.066;2023-07-09T10:49:01;1.83;;;1.02;;
23044;SDS011;11690;51.716;23.066;2023-07-09T10:51:40;2.05;;;1.25;;
23044;SDS011;11690;51.716;23.066;2023-07-09T10:54:14;1.30;;;0.90;;
23044;SDS011;11690;51.716;23.066;2023-07-09T10:56:43;2.03;;;0.85;;
23044;SDS011;11690;51.716;23.066;2023-07-09T10:59:21;1.10;;;0.88;;
23044;SDS011;11690;51.716;23.066;2023-07-09T11:05:00;1.08;;;0.80;;
23044;SDS011;11690;51.716;23.066;2023-07-09T11:07:36;1.70;;;1.10;;
23044;SDS011;11690;51.716;23.066;2023-07-09T11:10:19;1.73;;;0.90;;
23044;SDS011;11690;51.716;23.066;2023-07-09T11:13:14;2.15;;;1.00;;
23044;SDS011;11690;51.716;23.066;2023-07-09T11:15:49;1.88;;;0.80;;
23044;SDS011;11690;51.716;23.066;2023-07-09T11:18:21;1.02;;;0.75;;
23044;SDS011;11690;51.716;23.066;2023-07-09T11:21:27;1.42;;;0.90;;
23044;SDS011;11690;51.716;23.066;2023-07-09T11:23:49;0.90;;;0.60;;
23044;SDS011;11690;51.716;23.066;2023-07-09T11:29:09;1.17;;;0.90;;
23044;SDS011;11690;51.716;23.066;2023-07-09T11:31:41;0.60;;;0.60;;
23044;SDS011;11690;51.716;23.066;2023-07-09T11:36:46;1.23;;;0.40;;
23044;SDS011;11690;51.716;23.066;2023-07-09T11:40:01;1.48;;;0.75;;
23044;SDS011;11690;51.716;23.066;2023-07-09T11:42:24;0.60;;;0.50;;
23044;SDS011;11690;51.716;23.066;2023-07-09T11:44:54;1.85;;;0.70;;
23044;SDS011;11690;51.716;23.066;2023-07-09T11:50:35;0.88;;;0.60;;
23044;SDS011;11690;51.716;23.066;2023-07-09T11:55:47;0.77;;;0.40;;
23044;SDS011;11690;51.716;23.066;2023-07-09T11:58:15;2.58;;;0.70;;
23044;SDS011;11690;51.716;23.066;2023-07-09T12:00:46;0.85;;;0.70;;
23044;SDS011;11690;51.716;23.066;2023-07-09T12:03:15;0.88;;;0.50;;
23044;SDS011;11690;51.716;23.066;2023-07-09T12:05:47;1.08;;;0.70;;
23044;SDS011;11690;51.716;23.066;2023-07-09T12:08:16;0.90;;;0.60;;
23044;SDS011;11690;51.716;23.066;2023-07-09T12:10:44;4.38;;;0.70;;
23044;SDS011;11690;51.716;23.066;2023-07-09T12:13:11;1.27;;;0.68;;
23044;SDS011;11690;51.716;23.066;2023-07-09T12:15:39;1.33;;;0.68;;
23044;SDS011;11690;51.716;23.066;2023-07-09T12:18:11;1.05;;;0.70;;
23044;SDS011;11690;51.716;23.066;2023-07-09T12:20:40;0.82;;;0.43;;
23044;SDS011;11690;51.716;23.066;2023-07-09T12:23:35;0.77;;;0.50;;
23044;SDS011;11690;51.716;23.066;2023-07-09T12:26:00;0.55;;;0.40;;
23044;SDS011;11690;51.716;23.066;2023-07-09T12:28:28;1.05;;;0.50;;
23044;SDS011;11690;51.716;23.066;2023-07-09T12:30:56;1.30;;;0.50;;
23044;SDS011;11690;51.716;23.066;2023-07-09T12:33:24;0.63;;;0.40;;
23044;SDS011;11690;51.716;23.066;2023-07-09T12:35:55;0.40;;;0.30;;
23044;SDS011;11690;51.716;23.066;2023-07-09T12:38:24;0.70;;;0.40;;
23044;SDS011;11690;51.716;23.066;2023-07-09T12:40:53;0.68;;;0.47;;
23044;SDS011;11690;51.716;23.066;2023-07-09T12:43:25;0.55;;;0.45;;
23044;SDS011;11690;51.716;23.066;2023-07-09T12:45:54;0.55;;;0.25;;
23044;SDS011;11690;51.716;23.066;2023-07-09T12:48:24;1.10;;;0.50;;
23044;SDS011;11690;51.716;23.066;2023-07-09T12:50:55;1.15;;;0.40;;
23044;SDS011;11690;51.716;23.066;2023-07-09T12:53:25;0.70;;;0.55;;
23044;SDS011;11690;51.716;23.066;2023-07-09T12:55:54;1.10;;;0.60;;
23044;SDS011;11690;51.716;23.066;2023-07-09T12:58:23;0.77;;;0.43;;
23044;SDS011;11690;51.716;23.066;2023-07-09T13:00:53;0.68;;;0.40;;
23044;SDS011;11690;51.716;23.066;2023-07-09T13:03:21;1.20;;;0.68;;
23044;SDS011;11690;51.716;23.066;2023-07-09T13:05:54;0.40;;;0.40;;
23044;SDS011;11690;51.716;23.066;2023-07-09T13:08:22;0.77;;;0.55;;
23044;SDS011;11690;51.716;23.066;2023-07-09T13:10:50;0.63;;;0.50;;
23044;SDS011;11690;51.716;23.066;2023-07-09T13:13:19;1.05;;;0.50;;
23044;SDS011;11690;51.716;23.066;2023-07-09T13:15:49;0.75;;;0.50;;
23044;SDS011;11690;51.716;23.066;2023-07-09T13:18:24;0.50;;;0.40;;
23044;SDS011;11690;51.716;23.066;2023-07-09T13:20:52;0.35;;;0.30;;
23044;SDS011;11690;51.716;23.066;2023-07-09T13:23:23;0.82;;;0.50;;
23044;SDS011;11690;51.716;23.066;2023-07-09T13:25:54;1.42;;;0.30;;
23044;SDS011;11690;51.716;23.066;2023-07-09T13:28:24;0.57;;;0.50;;
23044;SDS011;11690;51.716;23.066;2023-07-09T13:30:55;3.38;;;0.50;;
23044;SDS011;11690;51.716;23.066;2023-07-09T13:33:26;0.90;;;0.40;;
23044;SDS011;11690;51.716;23.066;2023-07-09T13:35:54;0.70;;;0.40;;
23044;SDS011;11690;51.716;23.066;2023-07-09T13:38:22;1.05;;;0.40;;
23044;SDS011;11690;51.716;23.066;2023-07-09T13:40:54;0.70;;;0.43;;
23044;SDS011;11690;51.716;23.066;2023-07-09T13:43:26;0.60;;;0.45;;
23044;SDS011;11690;51.716;23.066;2023-07-09T13:45:57;0.40;;;0.40;;
23044;SDS011;11690;51.716;23.066;2023-07-09T13:48:25;1.80;;;0.65;;
23044;SDS011;11690;51.716;23.066;2023-07-09T13:50:54;0.82;;;0.60;;
23044;SDS011;11690;51.716;23.066;2023-07-09T13:53:22;0.73;;;0.32;;
23044;SDS011;11690;51.716;23.066;2023-07-09T13:55:52;0.68;;;0.50;;
23044;SDS011;11690;51.716;23.066;2023-07-09T13:58:21;0.75;;;0.40;;
23044;SDS011;11690;51.716;23.066;2023-07-09T14:00:50;1.08;;;0.60;;
23044;SDS011;11690;51.716;23.066;2023-07-09T14:05:46;1.25;;;0.77;;
23044;SDS011;11690;51.716;23.066;2023-07-09T14:08:14;1.13;;;0.70;;
23044;SDS011;11690;51.716;23.066;2023-07-09T14:10:43;1.13;;;0.43;;
23044;SDS011;11690;51.716;23.066;2023-07-09T14:13:15;0.77;;;0.50;;
23044;SDS011;11690;51.716;23.066;2023-07-09T14:15:43;3.50;;;0.50;;
23044;SDS011;11690;51.716;23.066;2023-07-09T14:18:15;0.50;;;0.50;;
23044;SDS011;11690;51.716;23.066;2023-07-09T14:20:44;0.70;;;0.68;;
23044;SDS011;11690;51.716;23.066;2023-07-09T14:23:13;0.50;;;0.50;;
23044;SDS011;11690;51.716;23.066;2023-07-09T14:25:42;0.65;;;0.57;;
23044;SDS011;11690;51.716;23.066;2023-07-09T14:28:11;0.60;;;0.50;;
23044;SDS011;11690;51.716;23.066;2023-07-09T14:30:40;1.30;;;0.60;;
23044;SDS011;11690;51.716;23.066;2023-07-09T14:33:15;1.13;;;0.77;;
23044;SDS011;11690;51.716;23.066;2023-07-09T14:35:44;0.90;;;0.60;;
23044;SDS011;11690;51.716;23.066;2023-07-09T14:38:22;0.63;;;0.60;;
23044;SDS011;11690;51.716;23.066;2023-07-09T14:40:52;1.05;;;0.50;;
23044;SDS011;11690;51.716;23.066;2023-07-09T14:43:20;0.95;;;0.70;;
23044;SDS011;11690;51.716;23.066;2023-07-09T14:45:48;1.58;;;0.60;;
23044;SDS011;11690;51.716;23.066;2023-07-09T14:48:17;0.80;;;0.70;;
23044;SDS011;11690;51.716;23.066;2023-07-09T14:50:46;1.80;;;0.70;;
23044;SDS011;11690;51.716;23.066;2023-07-09T14:55:42;0.75;;;0.57;;
23044;SDS011;11690;51.716;23.066;2023-07-09T14:58:15;0.88;;;0.70;;
23044;SDS011;11690;51.716;23.066;2023-07-09T15:00:44;1.00;;;0.80;;
23044;SDS011;11690;51.716;23.066;2023-07-09T15:03:31;0.77;;;0.60;;
23044;SDS011;11690;51.716;23.066;2023-07-09T15:05:59;1.80;;;0.95;;
23044;SDS011;11690;51.716;23.066;2023-07-09T15:08:27;1.45;;;0.80;;
23044;SDS011;11690;51.716;23.066;2023-07-09T15:10:55;1.05;;;0.70;;
23044;SDS011;11690;51.716;23.066;2023-07-09T15:13:26;1.10;;;0.52;;
23044;SDS011;11690;51.716;23.066;2023-07-09T15:15:58;0.90;;;0.80;;
23044;SDS011;11690;51.716;23.066;2023-07-09T15:18:26;1.52;;;0.77;;
23044;SDS011;11690;51.716;23.066;2023-07-09T15:20:54;0.80;;;0.77;;
23044;SDS011;11690;51.716;23.066;2023-07-09T15:23:24;0.90;;;0.65;;
23044;SDS011;11690;51.716;23.066;2023-07-09T15:25:52;1.75;;;0.80;;
23044;SDS011;11690;51.716;23.066;2023-07-09T15:28:19;1.65;;;0.65;;
23044;SDS011;11690;51.716;23.066;2023-07-09T15:30:47;3.30;;;0.80;;
23044;SDS011;11690;51.716;23.066;2023-07-09T15:33:15;1.23;;;0.80;;
23044;SDS011;11690;51.716;23.066;2023-07-09T15:35:44;0.77;;;0.60;;